LFQB 181730Z AUTO 31005KT CAVOK 23/18 Q1013

ElémentsDécodage
LFQB Station météo située sur l'aérodrome de TROYES Barberey
181730Z émis le 18 du mois à 17h30 UTC
AUTO Bulletin édité par un automate
31005KT vent du 310°, 05 noeuds
CAVOK Ceiling And Visibility OK
- Visibilité de 10 Km ou plus
- Pas de nuage au-dessous de 1500m ou au-dessous de l'altitude minimale du secteur la plus élevée (si>1500m) et absence de CB
- pas de temps présent significatif
23/18 température 23°C, point de rosée 18°C
 soit une humidité relative de 73%
Q1013 la pression au niveau de la mer (QNH) est de 1013 hPa